Bookmark and Share
Track history (hours):
 

Drifting buoy 41676

Last reported at 2013-Jan-16 08:40 UTC. Time now 2014-Apr-21 15:17 UTC.
Position N 31°36' W 027°42'.
Warning: this ship's position is years out of date!

Barometer 1022.0 mb
Water temperature 20.0 ° C

NotesDate/timePositionNaut miles runAvg speedWind from/ knotsBaromVisibWave heightAir tempDewpointWater temp
2013-Jan-16 08:40N 31°36' W 027°42'0 0.0 1022.0 20.0
2013-Jan-15 04:40N 31°36' W 027°42'8 0.6 1021.1 20.0
2013-Jan-14 14:40N 31°29' W 027°37'0 0.0 1022.2 20.1
2013-Jan-13 20:40N 31°29' W 027°37'0 0.0 1022.5 20.4
2013-Jan-13 19:40N 31°29' W 027°37'9 0.4 1022.2 20.4
2013-Jan-12 22:40N 31°20' W 027°35'1 0.3 1017.7 20.3
2013-Jan-12 20:40N 31°21' W 027°34'1 0.3 1017.2 20.3
2013-Jan-12 18:40N 31°21' W 027°35'0 0.0 1016.9 20.3
2013-Jan-12 17:40N 31°21' W 027°35'2 1.9 1017.1 20.4
2013-Jan-12 16:40N 31°19' W 027°35'2 0.5 1016.9 20.4
2013-Jan-12 12:40N 31°20' W 027°33'1 1.2 1017.7 20.4
2013-Jan-12 11:40N 31°19' W 027°34'1 0.9 1018.2 20.4
2013-Jan-12 10:40N 31°18' W 027°33'0 0.2 1017.8 20.4
2013-Jan-12 08:40N 31°19' W 027°33'1 0.3 1017.0 20.4
2013-Jan-12 05:40N 31°18' W 027°33'3 3.3 1016.9 20.4
2013-Jan-12 04:40N 31°15' W 027°34'3 0.4 1017.2 20.4
2013-Jan-11 21:40N 31°15' W 027°30'0 0.0 1018.5 20.5
2013-Jan-11 18:40N 31°15' W 027°30'1 0.4 1018.2 20.5
2013-Jan-11 16:40N 31°15' W 027°29'0 0.1 1018.7 20.4
2013-Jan-11 15:40N 31°15' W 027°29'1 0.9 1018.8 20.4
2013-Jan-11 14:40N 31°14' W 027°29'1 0.9 1019.3 20.5
2013-Jan-11 13:40N 31°14' W 027°30'1 0.4 1020.1 20.5
2013-Jan-11 11:40N 31°15' W 027°29'1 0.5 1021.7 20.5
2013-Jan-11 09:40N 31°14' W 027°28'5 2.3 1021.0 20.4
2013-Jan-11 07:40N 31°17' W 027°32'4 2.0 1020.5 20.4
2013-Jan-11 05:40N 31°15' W 027°28'1 0.5 1020.9 20.4
2013-Jan-11 03:40N 31°15' W 027°27'2 0.9 1021.7 20.5
2013-Jan-11 01:40N 31°15' W 027°25'1 0.2 1022.2 20.6
2013-Jan-10 22:40N 31°15' W 027°25'1 0.6 1022.6 20.7
2013-Jan-10 21:40N 31°15' W 027°26'2 0.6 1022.6 20.8
2013-Jan-10 18:40N 31°16' W 027°24'1 0.6 1022.5 21.2
2013-Jan-10 17:40N 31°16' W 027°23'0 0.5 1022.8 21.5
2013-Jan-10 16:40N 31°16' W 027°24'0 0.4 1022.8 21.6
2013-Jan-10 15:40N 31°16' W 027°24'1 1.0 1023.0 21.5
2013-Jan-10 14:40N 31°16' W 027°23'0 0.0 1023.5 21.2
2013-Jan-10 13:40N 31°16' W 027°23'1 0.4 1024.3 20.9
2013-Jan-10 11:40N 31°16' W 027°22'1 0.6 1025.8 20.6
2013-Jan-10 10:40N 31°16' W 027°22'0 0.0 1025.2 20.5
2013-Jan-10 09:40N 31°16' W 027°22'1 0.5 1025.0 20.5
2013-Jan-10 07:40N 31°17' W 027°21'1 0.3 1024.3 20.5
2013-Jan-10 05:40N 31°18' W 027°22'0 0.0 1024.4 20.4
2013-Jan-10 04:40N 31°18' W 027°22'0 0.2 1025.0 20.5
2013-Jan-10 01:40N 31°18' W 027°22'1 0.4 1025.5 20.5
2013-Jan-09 23:40N 31°18' W 027°21'0 0.5 1025.9 20.5
2013-Jan-09 22:40N 31°18' W 027°20'1 0.4 1025.8 20.5
2013-Jan-09 19:40N 31°19' W 027°19'1 0.2 1024.9 20.6
2013-Jan-09 15:40N 31°19' W 027°18'1 0.7 1024.9 20.7
2013-Jan-09 14:40N 31°19' W 027°19'0 0.0 1025.0 20.7
2013-Jan-09 13:40N 31°19' W 027°19'1 1.1 1025.8 20.6
2013-Jan-09 12:40N 31°20' W 027°19'0 0.3 1026.3 20.6
2013-Jan-09 11:40N 31°20' W 027°19'0 0.3 1026.3 20.5
2013-Jan-09 10:40N 31°19' W 027°19'1 0.9 1025.9 20.5
2013-Jan-09 09:40N 31°20' W 027°19'0 0.1 1025.2 20.5
2013-Jan-09 07:40N 31°20' W 027°19'0 0.5 1024.2 20.5
2013-Jan-09 06:40N 31°20' W 027°19'0 0.0 1024.1 20.5
2013-Jan-09 05:40N 31°20' W 027°19'0 0.2 1024.4 20.5
2013-Jan-09 04:40N 31°20' W 027°19'1 0.8 1024.6 20.5
2013-Jan-09 03:40N 31°20' W 027°20'0 0.0 1024.8 20.5
2013-Jan-09 02:40N 31°20' W 027°20'0 0.1 1025.1 20.5
2013-Jan-09 01:40N 31°20' W 027°20'1 0.7 1025.4 20.5
2013-Jan-08 23:40N 31°19' W 027°20'0 0.4 1025.9 20.6
2013-Jan-08 22:40N 31°19' W 027°20'1 0.8 1025.9 20.6
2013-Jan-08 21:40N 31°18' W 027°20'0 0.0 1025.7 20.7
2013-Jan-08 20:40N 31°18' W 027°20'0 0.2 1025.6 20.7
2013-Jan-08 19:40N 31°18' W 027°20'1 0.5 1025.5 20.8
2013-Jan-08 18:40N 31°18' W 027°20'1 0.5 1025.3 20.8
2013-Jan-08 16:40N 31°18' W 027°19'1 1.5 1026.0 20.9
2013-Jan-08 15:40N 31°18' W 027°20'4 1.0 1026.2 20.8
2013-Jan-08 11:40N 31°18' W 027°16'0 0.5 1028.4 20.6
2013-Jan-08 10:40N 31°18' W 027°16'0 0.0 1028.1 20.6
2013-Jan-08 09:40N 31°18' W 027°16'2 1.7 1027.5 20.5
2013-Jan-08 08:40N 31°18' W 027°14'1 0.2 1027.3 20.5
2013-Jan-08 05:40N 31°18' W 027°15'0 0.2 1026.2 20.5
2013-Jan-08 04:40N 31°18' W 027°15'0 0.4 1026.7 20.5
2013-Jan-08 03:40N 31°18' W 027°14'0 0.0 1026.8 20.4
2013-Jan-08 02:40N 31°18' W 027°14'2 0.9 1026.9 20.4
2013-Jan-08 00:40N 31°17' W 027°13'0 0.0 1026.8 20.4
2013-Jan-07 23:40N 31°17' W 027°13'1 0.7 1027.0 20.4
2013-Jan-07 22:40N 31°17' W 027°12'0 0.2 1026.5 20.4
2013-Jan-07 20:40N 31°17' W 027°12'1 0.6 1025.8 20.5
2013-Jan-07 19:40N 31°18' W 027°12'0 0.3 1025.2 20.6
2013-Jan-07 18:40N 31°18' W 027°12'1 0.7 1024.6 20.7
2013-Jan-07 17:40N 31°18' W 027°11'1 0.6 1024.4 20.7
2013-Jan-07 16:40N 31°18' W 027°11'1 0.2 1024.6 20.8
2013-Jan-07 13:40N 31°18' W 027°10'1 0.7 1024.9 20.6
2013-Jan-07 11:40N 31°19' W 027°09'1 0.3 1025.6 20.5
2013-Jan-07 09:40N 31°18' W 027°08'1 1.0 1023.8 20.6
2013-Jan-07 08:40N 31°18' W 027°10'0 0.0 1023.7 20.6
2013-Jan-07 06:40N 31°18' W 027°10'0 0.1 1022.9 20.6
2013-Jan-07 04:40N 31°18' W 027°10'0 0.4 1022.5 20.5
2013-Jan-07 03:40N 31°17' W 027°10'0 0.2 1022.5 20.5
2013-Jan-07 02:40N 31°17' W 027°10'2 0.6 1022.6 20.5
2013-Jan-06 22:40N 31°15' W 027°10'0 0.4 1023.8 20.4
2013-Jan-06 21:40N 31°15' W 027°09'0 0.3 1023.3 20.4
2013-Jan-06 20:40N 31°14' W 027°09'1 0.2 1023.3 20.4
2013-Jan-06 17:40N 31°14' W 027°09'2 0.8 1023.3 20.4
2013-Jan-06 15:40N 31°14' W 027°11'0 0.2 1023.6 20.5
2013-Jan-06 14:40N 31°14' W 027°10'2 2.1 1024.1 20.5
2013-Jan-06 13:40N 31°12' W 027°10'1 1.2 1024.8 20.5
2013-Jan-06 12:40N 31°13' W 027°10'1 0.3 1025.8 20.5
2013-Jan-06 10:40N 31°14' W 027°10'1 0.8 1026.0 20.5
2013-Jan-06 09:40N 31°13' W 027°09'   1025.5 20.5

Dump ship's entire track history

sailing weather and tide predictions

Buoy 41676